This is the latest recevied weather packets stored in our database for station/object WABB. If no packets are shown the sender has not sent any weather packets the latest 10 day(s).
| Time | Temp. | Humidity | Pressure | Rain* | Wind** | Luminosity | Snow |
|---|---|---|---|---|---|---|---|
| 1788274287 | 26.11° C | 89% | 1 hPa | 0 mm | - | - | - |
| 1788272317 | 26.11° C | 94% | 1 hPa | 0 mm | - | - | - |
| 1788270304 | 26.11° C | 94% | 1 hPa | 0 mm | - | - | - |
| 1788268328 | 27.22° C | 89% | 1 hPa | 0 mm | - | - | - |
| 1788266357 | 27.22° C | 89% | 1 hPa | 0 mm | - | - | - |
| 1788264361 | 27.78° C | 84% | 1 hPa | 0 mm | - | - | - |
| 1788262393 | 27.78° C | 84% | 1 hPa | 0 mm | - | - | - |
| 1788260423 | 27.78° C | 84% | 1 hPa | 0 mm | - | - | - |
| 1788256310 | 28.89° C | 79% | 1 hPa | 0 mm | - | - | - |
| 1788254243 | 28.89° C | 79% | 1 hPa | 0 mm | - | - | - |
| 1788250260 | 30° C | 75% | 1 hPa | 0 mm | - | - | - |
| 1788246275 | 31.11° C | 70% | 1 hPa | 0 mm | - | - | - |
| 1788242214 | 31.11° C | 70% | 1 hPa | 0 mm | - | - | - |
| 1788240252 | 31.11° C | 70% | 1 hPa | 0 mm | - | - | - |
| 1788238289 | 31.11° C | 70% | 1 hPa | 0 mm | - | - | - |
| 1788236309 | 31.11° C | 70% | 1 hPa | 0 mm | - | - | - |
| 1788234344 | 31.11° C | 70% | 1 hPa | 0 mm | - | - | - |
| 1788232382 | 32.22° C | 71% | 1 hPa | 0 mm | - | - | - |
| 1788230415 | 31.11° C | 75% | 1 hPa | 0 mm | - | - | - |
| 1788228449 | 28.89° C | 84% | 1 hPa | 0 mm | - | - | - |
| 1788226482 | 30° C | 79% | 1 hPa | 0 mm | - | - | - |
| 1788224516 | 28.89° C | 84% | 1 hPa | 0 mm | - | - | - |
| 1788222540 | 28.89° C | 84% | 1 hPa | 0 mm | - | - | - |
| 1788220587 | 28.89° C | 84% | 1 hPa | 0 mm | - | - | - |
| 1788218642 | 27.22° C | 94% | 1 hPa | 0 mm | - | - | - |
* Rain latest hour (hover to see other rain measurements)
** Current wind speed in m/s (hover to see current wind gust speed)